Accedi per prenotare

Caricamento...

Situazione Metar e Taf aeroporto Pisa - Effemeridi Aeroporto Lucca

[Source: ADDS]
METAR
LIRP 091345Z 14006KT 9999 FEW025 SCT050 07/05 Q1000 NOSIG =
LIRP 091130Z 0912/1012 VRB03KT 9999 SCT025 SCT040 BECMG 0913/0915 CAVOK BECMG 0916/0918 12005KT 3000 BR SCT060 BECMG 0919/0921 0800 BCFG SCT003 TEMPO 0919/1006 0100 FG VV001 BECMG 1004/1004 SCT002 BKN020 BKN050 BECMG 1009/1011 -RADZ FG FEW010 OVC030
TAF
LIRP 091130Z 0912/1012 VRB03KT 9999 SCT025 SCT040 BECMG 0913/0915 CAVOK BECMG 0916/0918 12005KT 3000 BR SCT060 BECMG 0919/0921 0800 BCFG SCT003 TEMPO 0919/1006 0100 FG VV001 BECMG 1004/1004 SCT002 BKN020 BKN050 BECMG 1009/1011 -RADZ FG FEW010 OVC030 =
SR / SS: 06:39 / 15:45 UTC (Effemeridi LIQL 2021-12-09)